Aviation Digital Data Service (ADDS)

Output produced by METARs form (1308 UTC 24 August 2019)
found at http://www.aviationweather.gov/metar/data/
 
Forecast for: WIMM (MEDAN/POLONIA (M, ID)
Text: TAF WIMM 241100Z 2412/2512 VRB05KT 5000 HZ SCT018
Forecast period: 1200 UTC 24 August 2019 to 0400 UTC 25 August 2019
Forecast type: FROM: standard forecast or significant change
Winds: variable direction winds at 6 MPH (5 knots; 2.6 m/s)
Visibility: 3 miles (5 km)
Ceiling: at least 12,000 feet AGL
Clouds: scattered clouds at 1800 feet AGL
Weather: HZ  (haze)
Text: BECMG 2504/2506 07008KT 8000 BKN017
Forecast period: 0400 to 1200 UTC 25 August 2019
Forecast type: BECOMING: Conditions expected to become as follows by 0600 UTC 25 August 2019
Winds: from the ENE (70 degrees) at 9 MPH (8 knots; 4.1 m/s)
Visibility: 5 miles (8 km)
Ceiling: 1700 feet AGL
Clouds: broken clouds at 1700 feet AGL
Weather: HZ  (haze)